Ds Progress — D5CQ9 — position and weather

sailwx.info

Track history (hours):
 
Tides and Currents Weather Stations Pressure Air Temp Water Temp Dewpoint Dewpoint Depression Visibility Wind Speed Wind Dir Waves Ship Positions

Ds Progress

Last reported at 2017-Oct-27 16:38 UTC. Time now 2017-Nov-21 17:31 UTC.
Position N 25°17' W 114°59'.
Warning: this ship's position is 25 days out of date.

Length 220 m; draft 8 m.

Type: Tanker. MMSI: 636092443.

Date/timePositionNaut miles runAvg speedWind from/ knotsBaromVisibWave heightAir tempDewpointWater temp
2017-Oct-27 16:38N 25°17' W 114°59'111.2
2017-Oct-27 16:30N 25°18' W 115°00'2911.1
2017-Oct-27 13:54N 25°36' W 115°25'6311.5
2017-Oct-27 08:24N 26°17' W 116°18'26911.3
2017-Oct-26 08:29N 29°10' W 120°12'511.3
2017-Oct-26 08:00N 29°13' W 120°16'1011.1
2017-Oct-26 07:09N 29°20' W 120°25'311.1
2017-Oct-26 06:55N 29°21' W 120°27'511.2
2017-Oct-26 06:28N 29°25' W 120°31'611.4
2017-Oct-26 05:59N 29°28' W 120°36'611.6
2017-Oct-26 05:29N 29°32' W 120°41'611.4
2017-Oct-26 05:00N 29°35' W 120°46'611.4
2017-Oct-26 04:30N 29°39' W 120°51'611.6
2017-Oct-26 03:58N 29°43' W 120°56'611.6
2017-Oct-26 03:30N 29°46' W 121°01'611.5
2017-Oct-26 03:00N 29°50' W 121°06'611.6
2017-Oct-26 02:30N 29°54' W 121°12'611.5
2017-Oct-26 02:00N 29°58' W 121°17'611.5
2017-Oct-26 01:30N 30°01' W 121°22'611.5
2017-Oct-26 01:00N 30°05' W 121°27'611.6
2017-Oct-26 00:30N 30°09' W 121°32'611.6
2017-Oct-26 00:00N 30°12' W 121°37'611.4
2017-Oct-25 23:30N 30°16' W 121°42'611.3
2017-Oct-25 23:00N 30°20' W 121°47'711.5
2017-Oct-25 22:23N 30°24' W 121°53'411.5
2017-Oct-25 22:00N 30°27' W 121°57'611.4
2017-Oct-25 21:30N 30°31' W 122°02'611.4
2017-Oct-25 21:00N 30°35' W 122°07'611.4
2017-Oct-25 20:30N 30°39' W 122°12'611.4
2017-Oct-25 20:00N 30°43' W 122°16'611.5
2017-Oct-25 19:30N 30°47' W 122°21'611.4
2017-Oct-25 19:00N 30°51' W 122°26'611.5
2017-Oct-25 18:30N 30°55' W 122°30'611.3
2017-Oct-25 18:00N 30°59' W 122°35'611.3
2017-Oct-25 17:30N 31°03' W 122°40'611.3
2017-Oct-25 17:00N 31°07' W 122°44'811.3
2017-Oct-25 16:20N 31°13' W 122°50'411.5
2017-Oct-25 15:58N 31°16' W 122°54'511.5
2017-Oct-25 15:30N 31°19' W 122°58'611.4
2017-Oct-25 15:00N 31°23' W 123°03'611.3
2017-Oct-25 14:30N 31°27' W 123°08'711.4
2017-Oct-25 13:54N 31°32' W 123°13'711.2
2017-Oct-25 13:18N 31°37' W 123°19'611.5
2017-Oct-25 12:47N 31°41' W 123°24'311.5
2017-Oct-25 12:29N 31°44' W 123°27'12411.0
2017-Oct-25 01:15N 33°43' W 124°04'410.4
2017-Oct-25 00:55N 33°46' W 124°02'17810.8
2017-Oct-24 08:25N 36°41' W 123°23'410.5
2017-Oct-24 08:00N 36°46' W 123°22'510.4
2017-Oct-24 07:30N 36°51' W 123°22'610.5
2017-Oct-24 06:55N 36°57' W 123°20'410.4
2017-Oct-24 06:30N 37°01' W 123°20'710.6
2017-Oct-24 05:52N 37°08' W 123°18'410.9
2017-Oct-24 05:30N 37°12' W 123°17'610.9
2017-Oct-24 04:59N 37°17' W 123°16'510.8
2017-Oct-24 04:30N 37°22' W 123°15'510.7
2017-Oct-24 04:00N 37°27' W 123°12'510.7
2017-Oct-24 03:30N 37°31' W 123°07'510.6
2017-Oct-24 03:00N 37°35' W 123°03'611.1
2017-Oct-24 02:30N 37°38' W 122°57'510.9
2017-Oct-24 02:00N 37°41' W 122°51'510.7
2017-Oct-24 01:30N 37°44' W 122°45'5 9.9
2017-Oct-24 01:00N 37°46' W 122°40'611.9
2017-Oct-24 00:30N 37°48' W 122°33'713.0
2017-Oct-24 00:00N 37°50' W 122°25'4 8.9
2017-Oct-23 23:30N 37°47' W 122°21'1 1.4
2017-Oct-23 22:59N 37°48' W 122°22'0 0.1
2017-Oct-23 22:29N 37°48' W 122°22'0 0.1
2017-Oct-23 21:59N 37°48' W 122°22'0 0.2
2017-Oct-23 21:29N 37°48' W 122°22'0 0.1
2017-Oct-23 20:59N 37°47' W 122°22'0 0.1
2017-Oct-23 20:29N 37°47' W 122°22'0 0.0
2017-Oct-23 19:59N 37°47' W 122°22'0 0.1
2017-Oct-23 19:29N 37°48' W 122°21'0 0.0
2017-Oct-23 18:59N 37°47' W 122°21'0 0.0
2017-Oct-23 18:29N 37°47' W 122°21'0 0.0
2017-Oct-23 17:59N 37°48' W 122°21'0 0.0
2017-Oct-23 17:29N 37°48' W 122°21'0 0.1
2017-Oct-23 16:59N 37°48' W 122°21'0 0.4
2017-Oct-23 16:29N 37°48' W 122°22'0 0.1
2017-Oct-23 15:59N 37°48' W 122°22'0 0.0
2017-Oct-23 15:29N 37°48' W 122°22'0 0.0
2017-Oct-23 14:59N 37°48' W 122°22'0 0.0
2017-Oct-23 14:29N 37°48' W 122°22'0 0.0
2017-Oct-23 13:59N 37°48' W 122°22'0 0.0
2017-Oct-23 13:29N 37°48' W 122°22'0 0.0
2017-Oct-23 12:59N 37°48' W 122°22'0 0.3
2017-Oct-23 12:31N 37°48' W 122°21'3 6.1
2017-Oct-23 12:01N 37°50' W 122°24'611.5
2017-Oct-23 11:30N 37°55' W 122°27'510.5
2017-Oct-23 11:00N 38°00' W 122°25'510.1
2017-Oct-23 10:30N 38°03' W 122°19'5 9.8
2017-Oct-23 09:59N 38°04' W 122°13'4 8.5
2017-Oct-23 09:30N 38°02' W 122°08'0 0.0
2017-Oct-22 08:36N 38°03' W 122°08'0 1.9
2017-Oct-22 08:28N 38°02' W 122°08'2 4.7
2017-Oct-22 08:00N 38°03' W 122°11'4 8.3
2017-Oct-22 07:30N 38°04' W 122°16'4 8.1
2017-Oct-22 07:00N 38°03' W 122°21'4 8.5
2017-Oct-22 06:30N 37°60' W 122°25'510.7
2017-Oct-22 06:00N 37°55' W 122°27'510.0
2017-Oct-22 05:30N 37°50' W 122°24'4 8.5
2017-Oct-22 05:00N 37°49' W 122°29'510.4
2017-Oct-22 04:30N 37°47' W 122°35'510.0
2017-Oct-22 04:00N 37°44' W 122°41'3 5.6
2017-Oct-22 03:30N 37°42' W 122°44'3 5.2
2017-Oct-22 03:00N 37°41' W 122°46'3 5.6
2017-Oct-22 02:30N 37°39' W 122°49'3 6.3
2017-Oct-22 02:00N 37°38' W 122°52'4 7.2
2017-Oct-22 01:30N 37°36' W 122°56'4 7.4
2017-Oct-22 01:00N 37°33' W 123°00'3 6.9
2017-Oct-22 00:30N 37°32' W 123°04'8 6.7
2017-Oct-21 23:17N 37°29' W 123°13'3 4.0
2017-Oct-21 22:36N 37°27' W 123°11'0 5.0
2017-Oct-21 22:30N 37°27' W 123°10'2 4.8
2017-Oct-21 22:00N 37°25' W 123°08'2 4.8
2017-Oct-21 21:30N 37°23' W 123°06'3 6.3
2017-Oct-21 21:00N 37°21' W 123°03'1 2.5
2017-Oct-21 20:30N 37°22' W 123°04'3 6.2
2017-Oct-21 20:00N 37°24' W 123°06'3 6.0
2017-Oct-21 19:30N 37°26' W 123°09'3 5.7
2017-Oct-21 19:00N 37°28' W 123°12'4 7.3
2017-Oct-21 18:30N 37°31' W 123°15'1 2.5
2017-Oct-21 18:00N 37°30' W 123°15'2 4.9
2017-Oct-21 17:30N 37°28' W 123°13'2 4.5
2017-Oct-21 17:00N 37°26' W 123°10'2 4.8
2017-Oct-21 16:30N 37°25' W 123°08'2 4.4
2017-Oct-21 16:00N 37°23' W 123°06'3 5.6
2017-Oct-21 15:30N 37°22' W 123°03'2 3.7
2017-Oct-21 15:00N 37°23' W 123°05'6 5.7
2017-Oct-21 14:00N 37°27' W 123°10'3 5.6
2017-Oct-21 13:30N 37°29' W 123°13'3 5.9
2017-Oct-21 13:00N 37°30' W 123°16'2 4.9
2017-Oct-21 12:30N 37°28' W 123°14'2 4.5
2017-Oct-21 12:00N 37°27' W 123°12'2 4.7
2017-Oct-21 11:30N 37°25' W 123°10'2 4.5
2017-Oct-21 11:00N 37°24' W 123°07'2 4.6
2017-Oct-21 10:30N 37°22' W 123°05'1 1.8
2017-Oct-21 10:00N 37°23' W 123°05'3 5.9
2017-Oct-21 09:30N 37°25' W 123°08'3 5.8
2017-Oct-21 09:00N 37°27' W 123°11'3 5.7
2017-Oct-21 08:30N 37°29' W 123°13'2 3.3
2017-Oct-21 08:00N 37°29' W 123°15'2 4.2
2017-Oct-21 07:30N 37°28' W 123°13'2 4.3
2017-Oct-21 07:00N 37°27' W 123°11'2 3.9
2017-Oct-21 06:30N 37°25' W 123°09'2 3.9
2017-Oct-21 06:00N 37°24' W 123°07'2 4.0
2017-Oct-21 05:30N 37°23' W 123°05'2 4.7
2017-Oct-21 05:00N 37°21' W 123°03'3 6.5
2017-Oct-21 04:30N 37°24' W 123°06'3 6.3
2017-Oct-21 04:00N 37°26' W 123°09'3 6.5
2017-Oct-21 03:30N 37°28' W 123°12'3 6.7
2017-Oct-21 03:00N 37°30' W 123°16'2 4.5
2017-Oct-21 02:30N 37°28' W 123°13'2 3.9
2017-Oct-21 02:00N 37°27' W 123°12'2 3.8
2017-Oct-21 01:30N 37°26' W 123°10'2 3.9
2017-Oct-21 01:00N 37°24' W 123°08'2 3.7
2017-Oct-21 00:30N 37°23' W 123°06'2 4.3
2017-Oct-21 00:00N 37°22' W 123°05'1 2.0
2017-Oct-20 23:30N 37°23' W 123°05'3 6.5
2017-Oct-20 23:00N 37°25' W 123°08'5 6.3
2017-Oct-20 22:15N 37°28' W 123°12'1 6.1
2017-Oct-20 22:00N 37°29' W 123°13'2 3.4
2017-Oct-20 21:28N 37°31' W 123°15'0 0.8
2017-Oct-20 20:59N 37°30' W 123°15'3 5.5
2017-Oct-20 20:30N 37°29' W 123°12'4 8.5
2017-Oct-20 20:00N 37°28' W 123°07'4 8.2
2017-Oct-20 19:30N 37°27' W 123°02'3 6.5
2017-Oct-20 19:00N 37°30' W 122°60'3 6.9
2017-Oct-20 18:30N 37°29' W 123°04'1 2.8
2017-Oct-20 18:00N 37°27' W 123°04'3 6.3
2017-Oct-20 17:30N 37°24' W 123°03'510.0
2017-Oct-20 17:00N 37°20' W 123°00'510.0
2017-Oct-20 16:30N 37°15' W 122°58'510.1
2017-Oct-20 16:00N 37°11' W 122°55'5 9.8
2017-Oct-20 15:30N 37°06' W 122°52'5 9.6
2017-Oct-20 14:58N 37°01' W 122°50'111 9.6
2017-Oct-20 03:29N 35°24' W 121°45'510.8
2017-Oct-20 02:59N 35°19' W 121°43'510.4
2017-Oct-20 02:30N 35°15' W 121°39'510.9
2017-Oct-20 02:00N 35°10' W 121°35'510.7
2017-Oct-20 01:30N 35°06' W 121°32'510.7
2017-Oct-20 01:00N 35°01' W 121°29'611.1
2017-Oct-20 00:30N 34°56' W 121°25'611.0
2017-Oct-20 00:00N 34°51' W 121°22'510.5
2017-Oct-19 23:30N 34°47' W 121°18'510.7
2017-Oct-19 23:00N 34°42' W 121°15'610.8
2017-Oct-19 22:29N 34°38' W 121°11'510.6
2017-Oct-19 22:00N 34°33' W 121°08'510.5
2017-Oct-19 21:30N 34°29' W 121°05'510.7
2017-Oct-19 21:00N 34°24' W 121°02'610.6
2017-Oct-19 20:29N 34°19' W 120°58'510.5
2017-Oct-19 19:58N 34°15' W 120°55'510.3
2017-Oct-19 19:28N 34°10' W 120°52'510.2
2017-Oct-19 19:00N 34°06' W 120°49'510.4
2017-Oct-19 18:30N 34°02' W 120°45'510.7
2017-Oct-19 18:00N 33°57' W 120°42'510.7
2017-Oct-19 17:30N 33°53' W 120°39'610.6
2017-Oct-19 16:56N 33°48' W 120°35'510.4
2017-Oct-19 16:27N 33°43' W 120°32'510.2
2017-Oct-19 15:59N 33°39' W 120°29'510.1
2017-Oct-19 15:30N 33°35' W 120°26'510.0
2017-Oct-19 15:01N 33°31' W 120°23'5 9.8
2017-Oct-19 14:30N 33°27' W 120°20'6 9.9
2017-Oct-19 13:54N 33°21' W 120°16'4 9.3
2017-Oct-19 13:28N 33°18' W 120°14'4 9.4
2017-Oct-19 13:00N 33°14' W 120°11'5 9.5
2017-Oct-19 12:30N 33°10' W 120°08'6 9.7
2017-Oct-19 11:55N 33°05' W 120°05'4 9.8
2017-Oct-19 11:29N 33°02' W 120°02'5 9.8
2017-Oct-19 11:00N 32°58' W 119°59'510.1
2017-Oct-19 10:30N 32°53' W 119°56'8 9.7
2017-Oct-19 09:43N 32°47' W 119°51'5 9.7
2017-Oct-19 09:14N 32°43' W 119°48'3 9.6
2017-Oct-19 08:57N 32°40' W 119°47'4 9.7
2017-Oct-19 08:30N 32°37' W 119°44'6 9.7
2017-Oct-19 07:54N 32°32' W 119°41'10 9.7
2017-Oct-19 06:49N 32°23' W 119°34'310.2
2017-Oct-19 06:30N 32°20' W 119°32'510.6
2017-Oct-19 06:00N 32°15' W 119°29'510.5
2017-Oct-19 05:30N 32°11' W 119°26'510.8
2017-Oct-19 05:00N 32°06' W 119°23'510.9
2017-Oct-19 04:30N 32°02' W 119°19'510.7
2017-Oct-19 04:00N 31°57' W 119°16'510.6
2017-Oct-19 03:30N 31°53' W 119°13'510.7
2017-Oct-19 03:00N 31°48' W 119°10'510.6
2017-Oct-19 02:30N 31°43' W 119°06'510.6
2017-Oct-19 02:00N 31°39' W 119°03'610.6
2017-Oct-19 01:24N 31°33' W 118°59'810.6
2017-Oct-19 00:40N 31°27' W 118°54'410.6
2017-Oct-19 00:19N 31°24' W 118°52'310.6
2017-Oct-19 00:00N 31°21' W 118°50'510.6
2017-Oct-18 23:30N 31°16' W 118°47'510.6
2017-Oct-18 23:00N 31°12' W 118°44'510.7
2017-Oct-18 22:30N 31°07' W 118°41'510.6
2017-Oct-18 22:00N 31°03' W 118°37'13 7.0
2017-Oct-18 20:10N 30°52' W 118°28'1 7.8
2017-Oct-18 19:59N 30°51' W 118°27'510.2
2017-Oct-18 19:30N 30°47' W 118°24'810.3
2017-Oct-18 18:44N 30°41' W 118°19'310.4
2017-Oct-18 18:28N 30°39' W 118°17'510.4
2017-Oct-18 18:00N 30°35' W 118°13'611.0
2017-Oct-18 17:30N 30°30' W 118°09'811.3
2017-Oct-18 16:46N 30°24' W 118°04'311.3
2017-Oct-18 16:30N 30°21' W 118°02'1611.3
2017-Oct-18 15:06N 30°08' W 117°51'110.8
2017-Oct-18 15:00N 30°08' W 117°50'1110.8
2017-Oct-18 14:00N 29°59' W 117°43'4310.9
2017-Oct-18 10:05N 29°25' W 117°14'  
Track history (hours):
 
Tides and Currents Weather Stations Pressure Air Temp Water Temp Dewpoint Dewpoint Depression Visibility Wind Speed Wind Dir Waves Ship Positions

Ds Progress

Last reported at 2017-Oct-27 16:38 UTC. Time now 2017-Nov-21 17:31 UTC.
Position N 25°17' W 114°59'.
Warning: this ship's position is 25 days out of date.

Length 220 m; draft 8 m.

Type: Tanker. MMSI: 636092443.

Date/timePositionNaut miles runAvg speedWind from/ knotsBaromVisibWave heightAir tempDewpointWater temp
2017-Oct-27 16:38N 25°17' W 114°59'111.2
2017-Oct-27 16:30N 25°18' W 115°00'2911.1
2017-Oct-27 13:54N 25°36' W 115°25'6311.5
2017-Oct-27 08:24N 26°17' W 116°18'26911.3
2017-Oct-26 08:29N 29°10' W 120°12'511.3
2017-Oct-26 08:00N 29°13' W 120°16'1011.1
2017-Oct-26 07:09N 29°20' W 120°25'311.1
2017-Oct-26 06:55N 29°21' W 120°27'511.2
2017-Oct-26 06:28N 29°25' W 120°31'611.4
2017-Oct-26 05:59N 29°28' W 120°36'611.6
2017-Oct-26 05:29N 29°32' W 120°41'611.4
2017-Oct-26 05:00N 29°35' W 120°46'611.4
2017-Oct-26 04:30N 29°39' W 120°51'611.6
2017-Oct-26 03:58N 29°43' W 120°56'611.6
2017-Oct-26 03:30N 29°46' W 121°01'611.5
2017-Oct-26 03:00N 29°50' W 121°06'611.6
2017-Oct-26 02:30N 29°54' W 121°12'611.5
2017-Oct-26 02:00N 29°58' W 121°17'611.5
2017-Oct-26 01:30N 30°01' W 121°22'611.5
2017-Oct-26 01:00N 30°05' W 121°27'611.6
2017-Oct-26 00:30N 30°09' W 121°32'611.6
2017-Oct-26 00:00N 30°12' W 121°37'611.4
2017-Oct-25 23:30N 30°16' W 121°42'611.3
2017-Oct-25 23:00N 30°20' W 121°47'711.5
2017-Oct-25 22:23N 30°24' W 121°53'411.5
2017-Oct-25 22:00N 30°27' W 121°57'611.4
2017-Oct-25 21:30N 30°31' W 122°02'611.4
2017-Oct-25 21:00N 30°35' W 122°07'611.4
2017-Oct-25 20:30N 30°39' W 122°12'611.4
2017-Oct-25 20:00N 30°43' W 122°16'611.5
2017-Oct-25 19:30N 30°47' W 122°21'611.4
2017-Oct-25 19:00N 30°51' W 122°26'611.5
2017-Oct-25 18:30N 30°55' W 122°30'611.3
2017-Oct-25 18:00N 30°59' W 122°35'611.3
2017-Oct-25 17:30N 31°03' W 122°40'611.3
2017-Oct-25 17:00N 31°07' W 122°44'811.3
2017-Oct-25 16:20N 31°13' W 122°50'411.5
2017-Oct-25 15:58N 31°16' W 122°54'511.5
2017-Oct-25 15:30N 31°19' W 122°58'611.4
2017-Oct-25 15:00N 31°23' W 123°03'611.3
2017-Oct-25 14:30N 31°27' W 123°08'711.4
2017-Oct-25 13:54N 31°32' W 123°13'711.2
2017-Oct-25 13:18N 31°37' W 123°19'611.5
2017-Oct-25 12:47N 31°41' W 123°24'311.5
2017-Oct-25 12:29N 31°44' W 123°27'12411.0
2017-Oct-25 01:15N 33°43' W 124°04'410.4
2017-Oct-25 00:55N 33°46' W 124°02'17810.8
2017-Oct-24 08:25N 36°41' W 123°23'410.5
2017-Oct-24 08:00N 36°46' W 123°22'510.4
2017-Oct-24 07:30N 36°51' W 123°22'610.5
2017-Oct-24 06:55N 36°57' W 123°20'410.4
2017-Oct-24 06:30N 37°01' W 123°20'710.6
2017-Oct-24 05:52N 37°08' W 123°18'410.9
2017-Oct-24 05:30N 37°12' W 123°17'610.9
2017-Oct-24 04:59N 37°17' W 123°16'510.8
2017-Oct-24 04:30N 37°22' W 123°15'510.7
2017-Oct-24 04:00N 37°27' W 123°12'510.7
2017-Oct-24 03:30N 37°31' W 123°07'510.6
2017-Oct-24 03:00N 37°35' W 123°03'611.1
2017-Oct-24 02:30N 37°38' W 122°57'510.9
2017-Oct-24 02:00N 37°41' W 122°51'510.7
2017-Oct-24 01:30N 37°44' W 122°45'5 9.9
2017-Oct-24 01:00N 37°46' W 122°40'611.9
2017-Oct-24 00:30N 37°48' W 122°33'713.0
2017-Oct-24 00:00N 37°50' W 122°25'4 8.9
2017-Oct-23 23:30N 37°47' W 122°21'1 1.4
2017-Oct-23 22:59N 37°48' W 122°22'0 0.1
2017-Oct-23 22:29N 37°48' W 122°22'0 0.1
2017-Oct-23 21:59N 37°48' W 122°22'0 0.2
2017-Oct-23 21:29N 37°48' W 122°22'0 0.1
2017-Oct-23 20:59N 37°47' W 122°22'0 0.1
2017-Oct-23 20:29N 37°47' W 122°22'0 0.0
2017-Oct-23 19:59N 37°47' W 122°22'0 0.1
2017-Oct-23 19:29N 37°48' W 122°21'0 0.0
2017-Oct-23 18:59N 37°47' W 122°21'0 0.0
2017-Oct-23 18:29N 37°47' W 122°21'0 0.0
2017-Oct-23 17:59N 37°48' W 122°21'0 0.0
2017-Oct-23 17:29N 37°48' W 122°21'0 0.1
2017-Oct-23 16:59N 37°48' W 122°21'0 0.4
2017-Oct-23 16:29N 37°48' W 122°22'0 0.1
2017-Oct-23 15:59N 37°48' W 122°22'0 0.0
2017-Oct-23 15:29N 37°48' W 122°22'0 0.0
2017-Oct-23 14:59N 37°48' W 122°22'0 0.0
2017-Oct-23 14:29N 37°48' W 122°22'0 0.0
2017-Oct-23 13:59N 37°48' W 122°22'0 0.0
2017-Oct-23 13:29N 37°48' W 122°22'0 0.0
2017-Oct-23 12:59N 37°48' W 122°22'0 0.3
2017-Oct-23 12:31N 37°48' W 122°21'3 6.1
2017-Oct-23 12:01N 37°50' W 122°24'611.5
2017-Oct-23 11:30N 37°55' W 122°27'510.5
2017-Oct-23 11:00N 38°00' W 122°25'510.1
2017-Oct-23 10:30N 38°03' W 122°19'5 9.8
2017-Oct-23 09:59N 38°04' W 122°13'4 8.5
2017-Oct-23 09:30N 38°02' W 122°08'0 0.0
2017-Oct-22 08:36N 38°03' W 122°08'0 1.9
2017-Oct-22 08:28N 38°02' W 122°08'2 4.7
2017-Oct-22 08:00N 38°03' W 122°11'4 8.3
2017-Oct-22 07:30N 38°04' W 122°16'4 8.1
2017-Oct-22 07:00N 38°03' W 122°21'4 8.5
2017-Oct-22 06:30N 37°60' W 122°25'510.7
2017-Oct-22 06:00N 37°55' W 122°27'510.0
2017-Oct-22 05:30N 37°50' W 122°24'4 8.5
2017-Oct-22 05:00N 37°49' W 122°29'510.4
2017-Oct-22 04:30N 37°47' W 122°35'510.0
2017-Oct-22 04:00N 37°44' W 122°41'3 5.6
2017-Oct-22 03:30N 37°42' W 122°44'3 5.2
2017-Oct-22 03:00N 37°41' W 122°46'3 5.6
2017-Oct-22 02:30N 37°39' W 122°49'3 6.3
2017-Oct-22 02:00N 37°38' W 122°52'4 7.2
2017-Oct-22 01:30N 37°36' W 122°56'4 7.4
2017-Oct-22 01:00N 37°33' W 123°00'3 6.9
2017-Oct-22 00:30N 37°32' W 123°04'8 6.7
2017-Oct-21 23:17N 37°29' W 123°13'3 4.0
2017-Oct-21 22:36N 37°27' W 123°11'0 5.0
2017-Oct-21 22:30N 37°27' W 123°10'2 4.8
2017-Oct-21 22:00N 37°25' W 123°08'2 4.8
2017-Oct-21 21:30N 37°23' W 123°06'3 6.3
2017-Oct-21 21:00N 37°21' W 123°03'1 2.5
2017-Oct-21 20:30N 37°22' W 123°04'3 6.2
2017-Oct-21 20:00N 37°24' W 123°06'3 6.0
2017-Oct-21 19:30N 37°26' W 123°09'3 5.7
2017-Oct-21 19:00N 37°28' W 123°12'4 7.3
2017-Oct-21 18:30N 37°31' W 123°15'1 2.5
2017-Oct-21 18:00N 37°30' W 123°15'2 4.9
2017-Oct-21 17:30N 37°28' W 123°13'2 4.5
2017-Oct-21 17:00N 37°26' W 123°10'2 4.8
2017-Oct-21 16:30N 37°25' W 123°08'2 4.4
2017-Oct-21 16:00N 37°23' W 123°06'3 5.6
2017-Oct-21 15:30N 37°22' W 123°03'2 3.7
2017-Oct-21 15:00N 37°23' W 123°05'6 5.7
2017-Oct-21 14:00N 37°27' W 123°10'3 5.6
2017-Oct-21 13:30N 37°29' W 123°13'3 5.9
2017-Oct-21 13:00N 37°30' W 123°16'2 4.9
2017-Oct-21 12:30N 37°28' W 123°14'2 4.5
2017-Oct-21 12:00N 37°27' W 123°12'2 4.7
2017-Oct-21 11:30N 37°25' W 123°10'2 4.5
2017-Oct-21 11:00N 37°24' W 123°07'2 4.6
2017-Oct-21 10:30N 37°22' W 123°05'1 1.8
2017-Oct-21 10:00N 37°23' W 123°05'3 5.9
2017-Oct-21 09:30N 37°25' W 123°08'3 5.8
2017-Oct-21 09:00N 37°27' W 123°11'3 5.7
2017-Oct-21 08:30N 37°29' W 123°13'2 3.3
2017-Oct-21 08:00N 37°29' W 123°15'2 4.2
2017-Oct-21 07:30N 37°28' W 123°13'2 4.3
2017-Oct-21 07:00N 37°27' W 123°11'2 3.9
2017-Oct-21 06:30N 37°25' W 123°09'2 3.9
2017-Oct-21 06:00N 37°24' W 123°07'2 4.0
2017-Oct-21 05:30N 37°23' W 123°05'2 4.7
2017-Oct-21 05:00N 37°21' W 123°03'3 6.5
2017-Oct-21 04:30N 37°24' W 123°06'3 6.3
2017-Oct-21 04:00N 37°26' W 123°09'3 6.5
2017-Oct-21 03:30N 37°28' W 123°12'3 6.7
2017-Oct-21 03:00N 37°30' W 123°16'2 4.5
2017-Oct-21 02:30N 37°28' W 123°13'2 3.9
2017-Oct-21 02:00N 37°27' W 123°12'2 3.8
2017-Oct-21 01:30N 37°26' W 123°10'2 3.9
2017-Oct-21 01:00N 37°24' W 123°08'2 3.7
2017-Oct-21 00:30N 37°23' W 123°06'2 4.3
2017-Oct-21 00:00N 37°22' W 123°05'1 2.0
2017-Oct-20 23:30N 37°23' W 123°05'3 6.5
2017-Oct-20 23:00N 37°25' W 123°08'5 6.3
2017-Oct-20 22:15N 37°28' W 123°12'1 6.1
2017-Oct-20 22:00N 37°29' W 123°13'2 3.4
2017-Oct-20 21:28N 37°31' W 123°15'0 0.8
2017-Oct-20 20:59N 37°30' W 123°15'3 5.5
2017-Oct-20 20:30N 37°29' W 123°12'4 8.5
2017-Oct-20 20:00N 37°28' W 123°07'4 8.2
2017-Oct-20 19:30N 37°27' W 123°02'3 6.5
2017-Oct-20 19:00N 37°30' W 122°60'3 6.9
2017-Oct-20 18:30N 37°29' W 123°04'1 2.8
2017-Oct-20 18:00N 37°27' W 123°04'3 6.3
2017-Oct-20 17:30N 37°24' W 123°03'510.0
2017-Oct-20 17:00N 37°20' W 123°00'510.0
2017-Oct-20 16:30N 37°15' W 122°58'510.1
2017-Oct-20 16:00N 37°11' W 122°55'5 9.8
2017-Oct-20 15:30N 37°06' W 122°52'5 9.6
2017-Oct-20 14:58N 37°01' W 122°50'111 9.6
2017-Oct-20 03:29N 35°24' W 121°45'510.8
2017-Oct-20 02:59N 35°19' W 121°43'510.4
2017-Oct-20 02:30N 35°15' W 121°39'510.9
2017-Oct-20 02:00N 35°10' W 121°35'510.7
2017-Oct-20 01:30N 35°06' W 121°32'510.7
2017-Oct-20 01:00N 35°01' W 121°29'611.1
2017-Oct-20 00:30N 34°56' W 121°25'611.0
2017-Oct-20 00:00N 34°51' W 121°22'510.5
2017-Oct-19 23:30N 34°47' W 121°18'510.7
2017-Oct-19 23:00N 34°42' W 121°15'610.8
2017-Oct-19 22:29N 34°38' W 121°11'510.6
2017-Oct-19 22:00N 34°33' W 121°08'510.5
2017-Oct-19 21:30N 34°29' W 121°05'510.7
2017-Oct-19 21:00N 34°24' W 121°02'610.6
2017-Oct-19 20:29N 34°19' W 120°58'510.5
2017-Oct-19 19:58N 34°15' W 120°55'510.3
2017-Oct-19 19:28N 34°10' W 120°52'510.2
2017-Oct-19 19:00N 34°06' W 120°49'510.4
2017-Oct-19 18:30N 34°02' W 120°45'510.7
2017-Oct-19 18:00N 33°57' W 120°42'510.7
2017-Oct-19 17:30N 33°53' W 120°39'610.6
2017-Oct-19 16:56N 33°48' W 120°35'510.4
2017-Oct-19 16:27N 33°43' W 120°32'510.2
2017-Oct-19 15:59N 33°39' W 120°29'510.1
2017-Oct-19 15:30N 33°35' W 120°26'510.0
2017-Oct-19 15:01N 33°31' W 120°23'5 9.8
2017-Oct-19 14:30N 33°27' W 120°20'6 9.9
2017-Oct-19 13:54N 33°21' W 120°16'4 9.3
2017-Oct-19 13:28N 33°18' W 120°14'4 9.4
2017-Oct-19 13:00N 33°14' W 120°11'5 9.5
2017-Oct-19 12:30N 33°10' W 120°08'6 9.7
2017-Oct-19 11:55N 33°05' W 120°05'4 9.8
2017-Oct-19 11:29N 33°02' W 120°02'5 9.8
2017-Oct-19 11:00N 32°58' W 119°59'510.1
2017-Oct-19 10:30N 32°53' W 119°56'8 9.7
2017-Oct-19 09:43N 32°47' W 119°51'5 9.7
2017-Oct-19 09:14N 32°43' W 119°48'3 9.6
2017-Oct-19 08:57N 32°40' W 119°47'4 9.7
2017-Oct-19 08:30N 32°37' W 119°44'6 9.7
2017-Oct-19 07:54N 32°32' W 119°41'10 9.7
2017-Oct-19 06:49N 32°23' W 119°34'310.2
2017-Oct-19 06:30N 32°20' W 119°32'510.6
2017-Oct-19 06:00N 32°15' W 119°29'510.5
2017-Oct-19 05:30N 32°11' W 119°26'510.8
2017-Oct-19 05:00N 32°06' W 119°23'510.9
2017-Oct-19 04:30N 32°02' W 119°19'510.7
2017-Oct-19 04:00N 31°57' W 119°16'510.6
2017-Oct-19 03:30N 31°53' W 119°13'510.7
2017-Oct-19 03:00N 31°48' W 119°10'510.6
2017-Oct-19 02:30N 31°43' W 119°06'510.6
2017-Oct-19 02:00N 31°39' W 119°03'610.6
2017-Oct-19 01:24N 31°33' W 118°59'810.6
2017-Oct-19 00:40N 31°27' W 118°54'410.6
2017-Oct-19 00:19N 31°24' W 118°52'310.6
2017-Oct-19 00:00N 31°21' W 118°50'510.6
2017-Oct-18 23:30N 31°16' W 118°47'510.6
2017-Oct-18 23:00N 31°12' W 118°44'510.7
2017-Oct-18 22:30N 31°07' W 118°41'510.6
2017-Oct-18 22:00N 31°03' W 118°37'13 7.0
2017-Oct-18 20:10N 30°52' W 118°28'1 7.8
2017-Oct-18 19:59N 30°51' W 118°27'510.2
2017-Oct-18 19:30N 30°47' W 118°24'810.3
2017-Oct-18 18:44N 30°41' W 118°19'310.4
2017-Oct-18 18:28N 30°39' W 118°17'510.4
2017-Oct-18 18:00N 30°35' W 118°13'611.0
2017-Oct-18 17:30N 30°30' W 118°09'811.3
2017-Oct-18 16:46N 30°24' W 118°04'311.3
2017-Oct-18 16:30N 30°21' W 118°02'1611.3
2017-Oct-18 15:06N 30°08' W 117°51'110.8
2017-Oct-18 15:00N 30°08' W 117°50'1110.8
2017-Oct-18 14:00N 29°59' W 117°43'4310.9
2017-Oct-18 10:05N 29°25' W 117°14'  

Dump ship's entire track history